createdAt,value
2023-02-28T00:03:51.795Z,1.05
2023-02-28T00:09:13.553Z,1.03
2023-02-28T00:14:35.316Z,1.13
2023-02-28T00:19:57.917Z,0.95
2023-02-28T00:25:25.001Z,1.17
2023-02-28T00:30:46.824Z,0.88
2023-02-28T00:36:11.129Z,0.86
2023-02-28T00:41:32.856Z,0.98
2023-02-28T00:46:55.124Z,0.84
2023-02-28T00:52:16.883Z,0.82
2023-02-28T00:57:38.622Z,1.02
2023-02-28T01:03:00.370Z,0.87
2023-02-28T01:08:22.815Z,0.82
2023-02-28T01:13:46.816Z,0.68
2023-02-28T01:19:09.087Z,0.82
2023-02-28T01:24:31.653Z,0.76
2023-02-28T01:29:54.183Z,0.58
2023-02-28T01:35:16.045Z,0.50
2023-02-28T01:40:37.800Z,0.75
2023-02-28T01:46:00.225Z,0.54
2023-02-28T01:51:35.626Z,0.49
2023-02-28T01:57:01.868Z,0.46
2023-02-28T02:02:25.094Z,0.69
2023-02-28T02:07:51.806Z,0.56
2023-02-28T02:13:35.097Z,0.66
2023-02-28T02:19:19.691Z,0.57
2023-02-28T02:24:50.588Z,0.56
2023-02-28T02:30:20.694Z,0.65
2023-02-28T02:35:58.861Z,0.81
2023-02-28T02:41:26.682Z,0.52
2023-02-28T02:46:51.323Z,0.69
2023-02-28T02:52:18.439Z,0.56
2023-02-28T02:57:52.968Z,0.52
2023-02-28T03:03:18.517Z,0.50
2023-02-28T03:08:40.285Z,0.74
2023-02-28T03:14:16.463Z,0.52
2023-02-28T03:19:52.485Z,0.42
2023-02-28T03:25:21.128Z,0.62
2023-02-28T03:31:21.366Z,0.42
2023-02-28T03:36:51.320Z,0.62
2023-02-28T03:42:19.355Z,0.69
2023-02-28T03:47:53.360Z,0.65
2023-02-28T03:53:34.197Z,0.68
2023-02-28T03:59:19.612Z,0.81
2023-02-28T04:04:46.087Z,0.56
2023-02-28T04:10:08.239Z,0.75
2023-02-28T04:15:30.009Z,0.82
2023-02-28T04:20:51.744Z,0.54
2023-02-28T04:26:13.457Z,0.66
2023-02-28T04:31:35.425Z,0.58
2023-02-28T04:37:11.907Z,0.63
2023-02-28T04:42:36.371Z,0.64
2023-02-28T04:47:58.131Z,0.78
2023-02-28T04:53:20.732Z,1.05
2023-02-28T04:58:43.651Z,0.99
2023-02-28T05:04:05.904Z,0.77
2023-02-28T05:09:28.114Z,0.77
2023-02-28T05:14:49.828Z,0.81
2023-02-28T05:20:19.528Z,1.12
2023-02-28T05:25:41.579Z,0.89
2023-02-28T05:31:03.341Z,0.84
2023-02-28T05:36:25.385Z,1.01
2023-02-28T05:41:47.083Z,1.08
2023-02-28T05:47:08.842Z,1.12
2023-02-28T05:52:33.531Z,1.08
2023-02-28T05:57:55.489Z,1.11
2023-02-28T06:03:17.322Z,1.03
2023-02-28T06:08:39.159Z,1.26
2023-02-28T06:14:01.947Z,1.15
2023-02-28T06:19:26.491Z,0.87
2023-02-28T06:24:48.583Z,0.96
2023-02-28T06:30:12.180Z,1.08
2023-02-28T06:35:33.917Z,1.05
2023-02-28T06:40:57.275Z,1.08
2023-02-28T06:46:19.367Z,1.14
2023-02-28T06:51:46.069Z,1.31
2023-02-28T06:57:08.389Z,1.15
2023-02-28T07:02:30.156Z,1.19
2023-02-28T07:07:53.584Z,1.40
2023-02-28T07:13:15.297Z,1.22
2023-02-28T07:18:38.454Z,1.24
2023-02-28T07:24:00.172Z,1.13
2023-02-28T07:29:22.105Z,1.26
2023-02-28T07:34:43.824Z,1.17
2023-02-28T07:40:12.392Z,1.29
2023-02-28T07:45:35.461Z,1.50
2023-02-28T07:50:58.531Z,1.45
2023-02-28T07:56:20.280Z,1.44
2023-02-28T08:01:42.025Z,1.44
2023-02-28T08:07:03.767Z,1.62
2023-02-28T08:12:25.511Z,1.71
2023-02-28T08:17:47.222Z,1.71
2023-02-28T08:23:08.938Z,1.59
2023-02-28T08:28:31.074Z,1.83
2023-02-28T08:33:54.074Z,1.79
2023-02-28T08:39:15.827Z,1.79
2023-02-28T08:44:37.552Z,1.96
2023-02-28T08:49:59.308Z,1.95
2023-02-28T08:55:21.014Z,1.77
2023-02-28T09:00:42.715Z,1.88
2023-02-28T09:06:05.696Z,1.82
2023-02-28T09:11:27.879Z,1.95
2023-02-28T09:16:49.915Z,1.92
2023-02-28T09:22:12.424Z,1.90
2023-02-28T09:27:34.129Z,1.99
2023-02-28T09:32:55.902Z,1.98
2023-02-28T09:38:18.611Z,2.29
2023-02-28T09:43:44.996Z,2.21
2023-02-28T09:49:13.297Z,2.18
2023-02-28T09:54:35.198Z,2.14
2023-02-28T10:00:10.661Z,2.29
2023-02-28T10:05:44.437Z,2.29
2023-02-28T10:11:08.861Z,2.48
2023-02-28T10:16:59.544Z,2.60
2023-02-28T10:22:30.386Z,2.38
2023-02-28T10:28:02.408Z,2.48
2023-02-28T10:33:35.166Z,2.54
2023-02-28T10:38:56.954Z,2.51
2023-02-28T10:44:22.303Z,2.82
2023-02-28T10:49:53.355Z,2.91
2023-02-28T10:55:26.046Z,2.85
2023-02-28T11:00:48.187Z,3.10
2023-02-28T11:06:17.856Z,3.15
2023-02-28T11:11:46.362Z,3.42
2023-02-28T11:17:36.377Z,3.57
2023-02-28T11:23:01.653Z,3.85
2023-02-28T11:28:34.450Z,4.16
2023-02-28T11:33:56.871Z,4.04
2023-02-28T11:39:20.083Z,4.28
2023-02-28T11:44:52.387Z,4.35
2023-02-28T11:50:51.109Z,4.34
2023-02-28T11:56:25.221Z,4.36
2023-02-28T12:01:56.064Z,4.27
2023-02-28T12:07:59.417Z,4.41
2023-02-28T12:13:37.651Z,4.59
2023-02-28T12:19:19.705Z,4.72
2023-02-28T12:25:14.239Z,4.90
2023-02-28T12:30:40.993Z,5.10
2023-02-28T12:36:11.101Z,5.30
2023-02-28T12:41:41.998Z,5.70
2023-02-28T12:47:06.704Z,5.78
2023-02-28T12:53:06.347Z,5.89
2023-02-28T12:58:44.278Z,5.86
2023-02-28T13:04:32.410Z,5.93
2023-02-28T13:10:00.258Z,5.72
2023-02-28T13:15:29.648Z,5.82
2023-02-28T13:20:52.248Z,5.87
2023-02-28T13:26:14.064Z,6.02
2023-02-28T13:32:07.855Z,6.07
2023-02-28T13:37:30.566Z,5.99
2023-02-28T13:42:53.524Z,6.09
2023-02-28T13:48:29.823Z,6.06
2023-02-28T13:54:11.066Z,5.89
2023-02-28T13:59:46.942Z,6.03
2023-02-28T14:05:18.048Z,6.03
2023-02-28T14:10:46.569Z,6.18
2023-02-28T14:16:09.944Z,6.21
2023-02-28T14:21:38.791Z,6.22
2023-02-28T14:27:18.711Z,6.20
2023-02-28T14:32:59.545Z,6.33
2023-02-28T14:38:27.027Z,6.39
2023-02-28T14:43:54.889Z,6.46
2023-02-28T14:49:29.042Z,6.52
2023-02-28T14:54:56.678Z,6.72
2023-02-28T15:00:33.523Z,6.64
2023-02-28T15:05:58.469Z,6.65
2023-02-28T15:11:23.165Z,6.53
2023-02-28T15:16:47.783Z,6.44
2023-02-28T15:22:17.849Z,6.40
2023-02-28T15:27:47.052Z,6.32
2023-02-28T15:33:12.381Z,6.29
2023-02-28T15:38:37.333Z,6.36
2023-02-28T15:44:35.805Z,6.28
2023-02-28T15:50:01.796Z,6.25
2023-02-28T15:55:28.414Z,6.27
2023-02-28T16:01:08.697Z,6.26
2023-02-28T16:06:38.210Z,6.11
2023-02-28T16:12:06.317Z,5.97
2023-02-28T16:17:30.834Z,5.99
2023-02-28T16:22:52.966Z,5.86
2023-02-28T16:28:26.367Z,5.88
2023-02-28T16:33:48.661Z,5.75
2023-02-28T16:39:10.385Z,5.55
2023-02-28T16:44:34.820Z,5.66
2023-02-28T16:49:56.997Z,5.68
2023-02-28T16:55:19.850Z,5.65
2023-02-28T17:00:42.514Z,5.58
2023-02-28T17:06:05.766Z,5.55
2023-02-28T17:11:28.086Z,5.41
2023-02-28T17:16:50.386Z,5.36
2023-02-28T17:22:12.386Z,5.33
2023-02-28T17:27:34.116Z,5.21
2023-02-28T17:32:57.065Z,5.19
2023-02-28T17:38:20.149Z,4.96
2023-02-28T17:43:41.951Z,4.93
2023-02-28T17:49:04.240Z,4.94
2023-02-28T17:54:26.050Z,4.72
2023-02-28T17:59:47.745Z,4.54
2023-02-28T18:05:10.708Z,4.35
2023-02-28T18:10:34.225Z,4.34
2023-02-28T18:15:56.027Z,4.25
2023-02-28T18:21:17.844Z,4.17
2023-02-28T18:26:40.622Z,4.13
2023-02-28T18:32:02.420Z,4.05
2023-02-28T18:37:24.297Z,4.04
2023-02-28T18:42:45.991Z,3.87
2023-02-28T18:48:08.153Z,3.77
2023-02-28T18:53:29.904Z,3.68
2023-02-28T18:58:52.553Z,3.49
2023-02-28T19:04:15.020Z,3.59
2023-02-28T19:09:36.997Z,3.39
2023-02-28T19:14:58.774Z,3.20
2023-02-28T19:20:20.602Z,3.07
2023-02-28T19:25:42.820Z,3.21
2023-02-28T19:31:11.534Z,3.09
2023-02-28T19:36:34.250Z,2.92
2023-02-28T19:41:56.246Z,2.90
2023-02-28T19:47:18.017Z,2.93
2023-02-28T19:58:06.456Z,2.99
2023-02-28T20:03:28.308Z,2.76
2023-02-28T20:08:50.681Z,2.69
2023-02-28T20:14:17.755Z,2.65
2023-02-28T20:19:39.579Z,2.71
2023-02-28T20:25:01.476Z,2.56
2023-02-28T20:30:24.367Z,2.67
2023-02-28T20:35:46.376Z,2.60
2023-02-28T20:41:08.993Z,2.77
2023-02-28T20:46:31.719Z,2.68
2023-02-28T20:51:53.765Z,2.56
2023-02-28T20:57:15.533Z,2.69
2023-02-28T21:02:37.376Z,2.50
2023-02-28T21:07:59.187Z,2.53
2023-02-28T21:13:21.131Z,2.48
2023-02-28T21:18:43.273Z,2.42
2023-02-28T21:24:06.141Z,2.39
2023-02-28T21:29:27.898Z,2.44
2023-02-28T21:34:50.013Z,2.44
2023-02-28T21:40:12.516Z,2.49
2023-02-28T21:45:34.618Z,2.28
2023-02-28T21:51:01.344Z,2.13
2023-02-28T21:56:25.113Z,2.09
2023-02-28T22:01:50.878Z,2.11
2023-02-28T22:07:12.716Z,2.17
2023-02-28T22:12:34.431Z,2.02
2023-02-28T22:17:56.138Z,2.06
2023-02-28T22:23:17.857Z,2.03
2023-02-28T22:28:39.616Z,2.02
2023-02-28T22:34:08.681Z,2.02
2023-02-28T22:39:30.530Z,1.99
2023-02-28T22:44:52.254Z,2.06
2023-02-28T22:50:14.132Z,1.98
2023-02-28T22:55:35.863Z,1.96
2023-02-28T23:01:08.500Z,2.13
2023-02-28T23:06:42.087Z,2.04
2023-02-28T23:12:03.894Z,2.09
2023-02-28T23:17:25.789Z,1.95
2023-02-28T23:22:50.425Z,1.96
2023-02-28T23:28:12.156Z,2.01
2023-02-28T23:33:34.016Z,1.79
2023-02-28T23:38:56.203Z,1.68
2023-02-28T23:44:18.116Z,1.52
2023-02-28T23:49:40.265Z,1.42
2023-02-28T23:55:02.029Z,1.09
